createdAt,value
2019-04-20T00:00:55.066Z,90.10
2019-04-20T00:03:52.500Z,90.20
2019-04-20T00:06:46.314Z,90.40
2019-04-20T00:09:26.537Z,90.30
2019-04-20T00:12:17.869Z,90.50
2019-04-20T00:14:54.800Z,90.50
2019-04-20T00:17:45.994Z,90.50
2019-04-20T00:20:27.884Z,90.50
2019-04-20T00:23:35.438Z,90.40
2019-04-20T00:27:04.918Z,90.40
2019-04-20T00:29:41.096Z,90.40
2019-04-20T00:32:14.378Z,90.40
2019-04-20T00:34:52.749Z,90.50
2019-04-20T00:37:25.428Z,90.60
2019-04-20T00:40:21.525Z,90.70
2019-04-20T00:43:06.656Z,91.10
2019-04-20T00:45:59.075Z,91.10
2019-04-20T00:48:46.219Z,90.80
2019-04-20T00:51:35.155Z,91.10
2019-04-20T00:54:09.532Z,90.90
2019-04-20T00:57:05.765Z,91.10
2019-04-20T00:59:59.103Z,91.30
2019-04-20T01:02:37.049Z,91.40
2019-04-20T01:08:20.915Z,91.50
2019-04-20T01:11:16.690Z,91.70
2019-04-20T01:14:05.508Z,91.90
2019-04-20T01:16:54.482Z,92.10
2019-04-20T01:19:32.589Z,92.00
2019-04-20T01:22:19.864Z,92.30
2019-04-20T01:25:09.914Z,92.40
2019-04-20T01:28:07.699Z,92.70
2019-04-20T01:30:40.842Z,93.10
2019-04-20T01:33:32.955Z,93.30
2019-04-20T01:36:27.885Z,93.50
2019-04-20T01:39:02.760Z,93.70
2019-04-20T01:44:28.454Z,93.90
2019-04-20T01:47:08.866Z,93.90
2019-04-20T01:49:59.980Z,93.40
2019-04-20T01:52:50.845Z,93.20
2019-04-20T01:55:55.651Z,93.00
2019-04-20T02:02:05.125Z,93.00
2019-04-20T02:05:11.333Z,92.90
2019-04-20T02:07:59.104Z,92.90
2019-04-20T02:10:51.849Z,92.80
2019-04-20T02:13:38.973Z,92.90
2019-04-20T02:16:27.325Z,93.10
2019-04-20T02:19:21.683Z,93.20
2019-04-20T02:22:03.834Z,93.10
2019-04-20T02:24:37.116Z,93.20
2019-04-20T02:27:31.282Z,93.40
2019-04-20T02:30:44.943Z,93.70
2019-04-20T02:33:34.987Z,93.60
2019-04-20T02:39:28.710Z,93.50
2019-04-20T02:42:30.088Z,93.70
2019-04-20T02:45:12.698Z,93.60
2019-04-20T02:47:47.384Z,93.60
2019-04-20T02:53:21.969Z,95.00
2019-04-20T02:56:04.862Z,94.00
2019-04-20T02:59:15.132Z,93.90
2019-04-20T03:01:55.208Z,93.80
2019-04-20T03:04:29.459Z,94.40
2019-04-20T03:07:14.949Z,94.50
2019-04-20T03:10:06.549Z,94.20
2019-04-20T03:12:59.734Z,94.00
2019-04-20T03:15:42.128Z,94.00
2019-04-20T03:18:25.547Z,93.90
2019-04-20T03:21:12.862Z,94.00
2019-04-20T03:24:06.370Z,94.00
2019-04-20T03:26:59.832Z,94.60
2019-04-20T03:33:24.535Z,94.50
2019-04-20T03:36:09.941Z,94.80
2019-04-20T03:38:45.125Z,94.70
2019-04-20T03:41:19.486Z,94.60
2019-04-20T03:49:52.545Z,93.80
2019-04-20T03:52:57.841Z,94.20
2019-04-20T03:56:02.306Z,94.40
2019-04-20T04:08:06.209Z,94.70
2019-04-20T04:11:03.287Z,95.40
2019-04-20T04:13:29.117Z,95.70
2019-04-20T04:16:15.538Z,95.30
2019-04-20T04:19:09.048Z,95.20
2019-04-20T04:21:59.141Z,95.10
2019-04-20T04:24:39.358Z,95.00
2019-04-20T04:27:38.691Z,95.00
2019-04-20T04:30:14.913Z,94.80
2019-04-20T04:33:32.637Z,95.60
2019-04-20T04:35:54.623Z,95.30
2019-04-20T04:38:42.356Z,95.60
2019-04-20T04:41:26.560Z,95.50
2019-04-20T04:44:08.661Z,95.80
2019-04-20T04:46:43.520Z,96.20
2019-04-20T04:49:31.111Z,95.30
2019-04-20T04:52:14.404Z,96.60
2019-04-20T04:55:09.564Z,95.60
2019-04-20T04:57:41.654Z,95.30
2019-04-20T05:00:28.157Z,95.20
2019-04-20T05:03:28.489Z,95.30
2019-04-20T05:06:32.051Z,95.10
2019-04-20T05:09:14.919Z,94.90
2019-04-20T05:12:04.147Z,95.60
2019-04-20T05:14:53.674Z,96.10
2019-04-20T05:17:54.456Z,94.90
2019-04-20T05:20:38.672Z,95.20
2019-04-20T05:23:37.867Z,95.10
2019-04-20T05:29:34.534Z,94.80
2019-04-20T05:32:24.915Z,95.20
2019-04-20T05:35:35.443Z,95.10
2019-04-20T05:38:20.392Z,94.40
2019-04-20T05:40:55.552Z,94.60
2019-04-20T05:46:42.540Z,94.50
2019-04-20T05:49:29.746Z,94.30
2019-04-20T05:52:31.554Z,93.90
2019-04-20T05:55:03.009Z,94.20
2019-04-20T05:57:50.436Z,93.50
2019-04-20T06:00:43.563Z,93.40
2019-04-20T06:03:20.363Z,93.20
2019-04-20T06:06:23.472Z,93.10
2019-04-20T06:09:03.378Z,93.00
2019-04-20T06:11:44.473Z,92.60
2019-04-20T06:17:31.388Z,92.10
2019-04-20T06:20:20.285Z,91.40
2019-04-20T06:26:11.217Z,90.90
2019-04-20T06:28:46.494Z,91.40
2019-04-20T06:31:40.970Z,90.30
2019-04-20T06:34:37.964Z,90.50
2019-04-20T06:37:23.467Z,90.20
2019-04-20T06:40:07.817Z,89.40
2019-04-20T06:42:58.845Z,88.80
2019-04-20T06:45:54.846Z,87.00
2019-04-20T06:48:35.321Z,85.80
2019-04-20T06:57:07.106Z,86.10
2019-04-20T06:59:54.459Z,83.60
2019-04-20T07:02:41.766Z,82.20
2019-04-20T07:08:30.902Z,80.10
2019-04-20T07:10:59.326Z,77.40
2019-04-20T07:13:33.104Z,77.20
2019-04-20T07:16:49.333Z,77.30
2019-04-20T07:19:50.452Z,78.00
2019-04-20T07:22:55.962Z,76.00
2019-04-20T07:26:09.570Z,75.40
2019-04-20T07:28:35.563Z,72.90
2019-04-20T07:31:18.633Z,73.80
2019-04-20T07:37:04.618Z,70.00
2019-04-20T07:39:40.297Z,71.30
2019-04-20T07:42:29.070Z,67.40
2019-04-20T07:45:18.212Z,67.80
2019-04-20T07:47:52.461Z,64.50
2019-04-20T07:50:36.136Z,63.80
2019-04-20T07:53:20.211Z,62.80
2019-04-20T07:56:12.132Z,62.20
2019-04-20T07:58:46.061Z,63.80
2019-04-20T08:05:05.993Z,60.10
2019-04-20T08:07:46.410Z,62.90
2019-04-20T08:10:42.122Z,55.30
2019-04-20T08:13:43.614Z,56.60
2019-04-20T08:16:14.284Z,53.30
2019-04-20T08:19:01.137Z,53.40
2019-04-20T08:21:47.543Z,53.00
2019-04-20T08:24:27.772Z,56.20
2019-04-20T08:29:58.923Z,53.00
2019-04-20T08:36:10.712Z,51.10
2019-04-20T08:41:57.557Z,48.30
2019-04-20T08:47:51.979Z,46.10
2019-04-20T08:50:28.115Z,46.40
2019-04-20T08:53:15.914Z,47.20
2019-04-20T08:55:57.001Z,44.90
2019-04-20T08:58:28.455Z,45.10
2019-04-20T09:01:18.424Z,44.30
2019-04-20T09:04:09.049Z,45.20
2019-04-20T09:06:59.714Z,44.00
2019-04-20T09:09:53.809Z,44.70
2019-04-20T09:12:35.711Z,42.50
2019-04-20T09:15:04.260Z,42.50
2019-04-20T09:18:20.614Z,41.50
2019-04-20T09:21:15.462Z,42.50
2019-04-20T09:24:17.160Z,39.90
2019-04-20T09:26:54.579Z,42.40
2019-04-20T09:29:32.902Z,38.70
2019-04-20T09:32:30.982Z,39.40
2019-04-20T09:35:24.862Z,38.10
2019-04-20T09:38:10.386Z,39.60
2019-04-20T09:40:55.484Z,38.90
2019-04-20T09:43:47.381Z,37.30
2019-04-20T09:46:37.787Z,38.70
2019-04-20T09:49:32.395Z,39.30
2019-04-20T09:52:16.986Z,39.70
2019-04-20T09:55:04.295Z,38.00
2019-04-20T09:57:55.992Z,39.90
2019-04-20T10:00:41.174Z,37.10
2019-04-20T10:03:08.682Z,36.70
2019-04-20T10:05:53.775Z,38.00
2019-04-20T10:08:44.725Z,35.70
2019-04-20T10:11:11.922Z,37.50
2019-04-20T10:13:56.469Z,36.80
2019-04-20T10:16:42.004Z,34.50
2019-04-20T10:22:10.959Z,35.50
2019-04-20T10:24:55.541Z,35.90
2019-04-20T10:27:42.061Z,34.00
2019-04-20T10:30:26.611Z,35.30
2019-04-20T10:33:10.505Z,36.20
2019-04-20T10:35:54.896Z,34.20
2019-04-20T10:38:40.153Z,33.80
2019-04-20T10:42:20.414Z,31.80
2019-04-20T10:44:29.295Z,32.20
2019-04-20T10:47:17.166Z,33.40
2019-04-20T10:50:00.980Z,31.30
2019-04-20T10:52:46.159Z,31.30
2019-04-20T10:55:31.323Z,32.40
2019-04-20T10:58:03.847Z,32.00
2019-04-20T11:00:50.090Z,31.30
2019-04-20T11:03:22.787Z,32.10
2019-04-20T11:06:20.594Z,29.30
2019-04-20T11:09:06.846Z,31.40
2019-04-20T11:11:50.826Z,30.50
2019-04-20T11:14:38.761Z,31.50
2019-04-20T11:17:22.409Z,30.60
2019-04-20T11:20:07.447Z,31.20
2019-04-20T11:22:52.576Z,31.70
2019-04-20T11:25:38.005Z,32.20
2019-04-20T11:28:22.518Z,31.70
2019-04-20T11:36:34.995Z,33.30
2019-04-20T11:39:19.192Z,31.90
2019-04-20T11:42:03.733Z,33.00
2019-04-20T11:44:48.839Z,33.30
2019-04-20T11:47:33.671Z,33.30
2019-04-20T11:50:19.727Z,33.60
2019-04-20T11:53:03.765Z,33.00
2019-04-20T11:55:48.820Z,33.40
2019-04-20T11:58:33.160Z,34.40
2019-04-20T12:01:43.999Z,33.70
2019-04-20T12:07:28.710Z,35.30
2019-04-20T12:10:17.344Z,35.20
2019-04-20T12:12:59.626Z,35.10
2019-04-20T12:15:43.644Z,35.60
2019-04-20T12:18:27.598Z,35.60
2019-04-20T12:21:12.716Z,34.80
2019-04-20T12:23:56.731Z,36.30
2019-04-20T12:26:41.099Z,36.70
2019-04-20T12:29:25.831Z,36.40
2019-04-20T12:32:10.736Z,37.20
2019-04-20T12:34:56.144Z,36.30
2019-04-20T12:37:40.991Z,37.80
2019-04-20T12:40:25.888Z,37.80
2019-04-20T12:43:11.104Z,39.40
2019-04-20T12:45:55.875Z,40.40
2019-04-20T12:48:40.193Z,41.10
2019-04-20T12:51:31.456Z,38.00
2019-04-20T12:54:10.873Z,38.20
2019-04-20T12:56:55.103Z,39.30
2019-04-20T12:59:42.725Z,40.00
2019-04-20T13:02:27.182Z,40.00
2019-04-20T13:05:13.448Z,40.30
2019-04-20T13:08:04.126Z,39.10
2019-04-20T13:11:04.472Z,39.70
2019-04-20T13:14:32.882Z,39.80
2019-04-20T13:17:06.252Z,39.60
2019-04-20T13:19:51.238Z,40.90
2019-04-20T13:22:36.811Z,41.10
2019-04-20T13:25:25.090Z,40.10
2019-04-20T13:28:10.682Z,40.10
2019-04-20T13:30:55.578Z,40.50
2019-04-20T13:33:43.326Z,40.60
2019-04-20T13:36:28.700Z,42.00
2019-04-20T13:39:12.804Z,39.70
2019-04-20T13:42:11.501Z,37.60
2019-04-20T13:44:59.125Z,37.20
2019-04-20T13:47:43.359Z,37.40
2019-04-20T13:50:31.714Z,39.00
2019-04-20T13:53:17.092Z,39.60
2019-04-20T13:56:01.638Z,40.10
2019-04-20T13:59:12.074Z,39.50
2019-04-20T14:05:04.710Z,41.80
2019-04-20T14:07:49.366Z,42.70
2019-04-20T14:10:33.783Z,43.60
2019-04-20T14:13:20.474Z,42.20
2019-04-20T14:16:04.997Z,43.90
2019-04-20T14:18:49.217Z,42.70
2019-04-20T14:21:34.215Z,43.10
2019-04-20T14:24:19.144Z,42.50
2019-04-20T14:27:03.391Z,42.00
2019-04-20T14:29:51.125Z,42.40
2019-04-20T14:32:34.776Z,44.30
2019-04-20T14:35:18.938Z,42.70
2019-04-20T14:38:05.860Z,43.70
2019-04-20T14:40:50.382Z,42.70
2019-04-20T14:43:36.497Z,41.80
2019-04-20T14:46:21.080Z,42.20
2019-04-20T14:49:05.026Z,43.20
2019-04-20T14:51:49.944Z,44.40
2019-04-20T14:54:35.109Z,44.50
2019-04-20T14:57:19.572Z,44.40
2019-04-20T15:03:25.942Z,43.60
2019-04-20T15:06:11.644Z,43.50
2019-04-20T15:08:58.831Z,43.40
2019-04-20T15:11:46.568Z,42.60
2019-04-20T15:14:32.370Z,43.90
2019-04-20T15:20:39.511Z,44.20
2019-04-20T15:23:25.777Z,43.40
2019-04-20T15:26:10.732Z,43.40
2019-04-20T15:28:59.928Z,43.40
2019-04-20T15:31:56.581Z,44.00
2019-04-20T15:34:40.805Z,44.10
2019-04-20T15:37:25.148Z,44.60
2019-04-20T15:40:11.159Z,44.70
2019-04-20T15:43:04.331Z,44.10
2019-04-20T15:45:45.390Z,43.80
2019-04-20T15:48:37.644Z,43.90
2019-04-20T15:51:23.641Z,43.80
2019-04-20T15:54:09.383Z,44.30
2019-04-20T16:00:02.542Z,43.60
2019-04-20T16:08:54.346Z,45.20
2019-04-20T16:11:39.224Z,46.20
2019-04-20T16:14:23.871Z,45.10
2019-04-20T16:17:12.504Z,44.80
2019-04-20T16:20:06.277Z,44.80
2019-04-20T16:22:42.669Z,44.00
2019-04-20T16:28:32.100Z,43.20
2019-04-20T16:31:30.858Z,44.60
2019-04-20T16:34:15.970Z,43.90
2019-04-20T16:36:59.928Z,43.40
2019-04-20T16:39:46.493Z,43.80
2019-04-20T16:42:32.089Z,43.70
2019-04-20T16:45:17.175Z,44.20
2019-04-20T16:48:03.854Z,43.70
2019-04-20T16:50:48.862Z,44.00
2019-04-20T16:53:32.977Z,44.40
2019-04-20T16:56:19.450Z,43.80
2019-04-20T16:59:07.115Z,43.60
2019-04-20T17:01:50.622Z,43.80
2019-04-20T17:04:35.610Z,43.10
2019-04-20T17:07:45.392Z,42.30
2019-04-20T17:10:29.087Z,42.90
2019-04-20T17:13:13.593Z,43.10
2019-04-20T17:15:57.532Z,43.00
2019-04-20T17:18:41.660Z,42.60
2019-04-20T17:21:28.945Z,42.80
2019-04-20T17:24:13.359Z,42.90
2019-04-20T17:30:27.847Z,42.90
2019-04-20T17:33:15.883Z,42.40
2019-04-20T17:36:08.890Z,42.50
2019-04-20T17:38:52.651Z,43.60
2019-04-20T17:41:48.793Z,42.90
2019-04-20T17:44:31.515Z,42.80
2019-04-20T17:47:21.475Z,42.90
2019-04-20T17:50:03.601Z,42.90
2019-04-20T17:52:53.906Z,43.40
2019-04-20T17:58:32.648Z,43.20
2019-04-20T18:01:48.736Z,44.10
2019-04-20T18:04:53.822Z,43.40
2019-04-20T18:08:02.606Z,44.20
2019-04-20T18:10:25.996Z,43.40
2019-04-20T18:12:56.754Z,43.70
2019-04-20T18:15:52.647Z,43.50
2019-04-20T18:18:56.219Z,43.70
2019-04-20T18:24:56.852Z,44.40
2019-04-20T18:27:38.767Z,44.20
2019-04-20T18:33:09.521Z,44.40
2019-04-20T18:35:58.327Z,44.20
2019-04-20T18:39:04.244Z,44.00
2019-04-20T18:41:51.481Z,44.40
2019-04-20T18:44:55.839Z,44.70
2019-04-20T18:47:34.356Z,44.60
2019-04-20T18:50:11.835Z,44.60
2019-04-20T18:52:49.694Z,44.60
2019-04-20T18:55:46.183Z,44.50
2019-04-20T18:58:27.050Z,44.10
2019-04-20T19:01:32.064Z,44.10
2019-04-20T19:03:59.701Z,44.90
2019-04-20T19:06:57.452Z,45.00
2019-04-20T19:09:43.211Z,45.50
2019-04-20T19:12:41.441Z,45.70
2019-04-20T19:16:03.605Z,46.00
2019-04-20T19:21:43.775Z,45.50
2019-04-20T19:24:32.743Z,45.90
2019-04-20T19:27:17.035Z,45.50
2019-04-20T19:33:05.287Z,46.20
2019-04-20T19:35:46.570Z,46.50
2019-04-20T19:38:24.474Z,47.40
2019-04-20T19:41:23.382Z,47.30
2019-04-20T19:44:04.080Z,48.20
2019-04-20T19:47:05.400Z,48.50
2019-04-20T19:49:36.000Z,49.00
2019-04-20T19:52:39.628Z,47.90
2019-04-20T19:55:27.451Z,48.80
2019-04-20T19:58:11.494Z,48.90
2019-04-20T20:00:46.835Z,48.50
2019-04-20T20:03:29.978Z,48.70
2019-04-20T20:06:22.501Z,49.00
2019-04-20T20:09:04.234Z,49.80
2019-04-20T20:11:56.113Z,49.90
2019-04-20T20:14:44.800Z,50.10
2019-04-20T20:17:44.422Z,50.50
2019-04-20T20:20:35.810Z,51.30
2019-04-20T20:23:00.094Z,51.10
2019-04-20T20:25:47.548Z,51.20
2019-04-20T20:28:39.602Z,50.70
2019-04-20T20:31:27.522Z,50.90
2019-04-20T20:34:10.929Z,51.20
2019-04-20T20:36:54.958Z,51.80
2019-04-20T20:39:36.399Z,51.30
2019-04-20T20:42:29.580Z,51.70
2019-04-20T20:45:16.043Z,53.00
2019-04-20T20:48:12.094Z,52.10
2019-04-20T20:51:02.184Z,52.60
2019-04-20T20:53:41.704Z,52.40
2019-04-20T20:56:19.213Z,53.30
2019-04-20T20:59:03.972Z,52.60
2019-04-20T21:01:52.419Z,52.80
2019-04-20T21:04:29.999Z,53.20
2019-04-20T21:07:13.989Z,53.40
2019-04-20T21:09:58.773Z,53.80
2019-04-20T21:12:50.970Z,54.00
2019-04-20T21:15:30.255Z,54.30
2019-04-20T21:18:33.552Z,54.50
2019-04-20T21:21:16.894Z,54.50
2019-04-20T21:23:58.148Z,54.60
2019-04-20T21:26:37.616Z,54.80
2019-04-20T21:29:31.771Z,55.00
2019-04-20T21:32:10.901Z,55.10
2019-04-20T21:34:58.456Z,55.40
2019-04-20T21:37:43.419Z,55.60
2019-04-20T21:40:32.414Z,55.70
2019-04-20T21:43:11.323Z,55.60
2019-04-20T21:46:01.290Z,56.10
2019-04-20T21:48:56.044Z,56.30
2019-04-20T21:51:38.354Z,56.60
2019-04-20T21:54:14.105Z,56.80
2019-04-20T21:57:03.084Z,57.00
2019-04-20T21:59:48.718Z,56.70
2019-04-20T22:02:37.696Z,57.20
2019-04-20T22:05:16.036Z,57.30
2019-04-20T22:08:03.316Z,57.40
2019-04-20T22:10:45.425Z,57.70
2019-04-20T22:13:36.394Z,57.60
2019-04-20T22:16:17.132Z,57.80
2019-04-20T22:19:16.014Z,57.80
2019-04-20T22:22:00.623Z,58.20
2019-04-20T22:24:49.021Z,58.40
2019-04-20T22:27:22.417Z,58.40
2019-04-20T22:32:50.343Z,58.40
2019-04-20T22:35:36.027Z,59.10
2019-04-20T22:38:24.740Z,59.20
2019-04-20T22:41:23.192Z,59.40
2019-04-20T22:44:12.290Z,59.50
2019-04-20T22:46:42.744Z,59.60
2019-04-20T22:49:50.058Z,59.80
2019-04-20T22:52:37.006Z,59.70
2019-04-20T22:55:36.625Z,59.80
2019-04-20T22:58:00.969Z,59.70
2019-04-20T23:00:49.062Z,59.90
2019-04-20T23:03:25.019Z,60.10
2019-04-20T23:06:09.058Z,60.60
2019-04-20T23:08:58.559Z,60.50
2019-04-20T23:11:40.405Z,60.40
2019-04-20T23:14:24.704Z,60.60
2019-04-20T23:17:10.292Z,61.40
2019-04-20T23:19:58.195Z,61.20
2019-04-20T23:22:43.958Z,61.60
2019-04-20T23:25:27.044Z,61.40
2019-04-20T23:28:14.755Z,61.50
2019-04-20T23:31:02.509Z,61.70
2019-04-20T23:33:43.604Z,61.60
2019-04-20T23:36:36.529Z,62.00
2019-04-20T23:42:02.469Z,62.20
2019-04-20T23:47:57.759Z,62.70
2019-04-20T23:51:07.948Z,62.30
2019-04-20T23:53:46.701Z,62.50
2019-04-20T23:56:20.402Z,63.00
2019-04-20T23:59:04.704Z,63.40
